Time;durP1;ratioP1;P1;durP2;ratioP2;P2;SDS_P1;SDS_P2;PMS_P1;PMS_P2;Temp;Humidity;BMP_temperature;BMP_pressure;BME280_temperature;BME280_humidity;BME280_pressure;Samples;Min_cycle;Max_cycle;Signal;HPM_P1;HPM_P2
2022/08/19 00:00:39;;;;;;;14.48;10.15;;;32.90;51.90;;;;;;4980433;28;20430;-75
2022/08/19 00:03:06;;;;;;;12.52;9.35;;;33.00;51.80;;;;;;4991764;28;20097;-76
2022/08/19 00:05:32;;;;;;;13.55;9.82;;;33.00;51.70;;;;;;4991790;28;20029;-77
2022/08/19 00:07:58;;;;;;;12.05;9.63;;;33.10;51.80;;;;;;4991667;28;20030;-77
2022/08/19 00:10:24;;;;;;;13.85;9.50;;;33.10;51.70;;;;;;4995410;28;20034;-76
2022/08/19 00:12:50;;;;;;;10.77;9.50;;;33.10;51.80;;;;;;4994207;28;20031;-77
2022/08/19 00:15:18;;;;;;;11.63;9.80;;;33.10;51.60;;;;;;4994302;28;20080;-76
2022/08/19 00:17:45;;;;;;;14.82;9.73;;;33.00;52.10;;;;;;4994825;28;20026;-78
2022/08/19 00:20:13;;;;;;;11.93;9.75;;;33.00;51.70;;;;;;4995145;28;20425;-77
2022/08/19 00:22:41;;;;;;;11.25;9.27;;;33.00;51.70;;;;;;4995382;28;20121;-77
2022/08/19 00:25:07;;;;;;;12.80;10.10;;;33.00;51.80;;;;;;4995251;28;20023;-77
2022/08/19 00:27:34;;;;;;;12.48;9.20;;;32.90;51.90;;;;;;4995111;28;20077;-78
2022/08/19 00:30:01;;;;;;;12.63;9.50;;;32.90;52.00;;;;;;4993988;28;20037;-78
2022/08/19 00:32:27;;;;;;;12.88;9.93;;;32.90;51.90;;;;;;4980356;28;20505;-77
2022/08/19 00:34:53;;;;;;;13.05;10.45;;;32.90;51.90;;;;;;4994936;28;20485;-77
2022/08/19 00:37:22;;;;;;;11.27;9.65;;;32.90;52.10;;;;;;4995087;28;20030;-77
2022/08/19 00:39:50;;;;;;;14.43;9.77;;;32.90;52.00;;;;;;4993782;28;20027;-77
2022/08/19 00:42:17;;;;;;;12.32;10.25;;;32.90;52.00;;;;;;4995663;28;20060;-77
2022/08/19 00:44:43;;;;;;;12.52;10.20;;;32.80;51.80;;;;;;4994484;28;20033;-78
2022/08/19 00:47:08;;;;;;;11.65;10.30;;;32.70;52.40;;;;;;4995814;28;20038;-76
2022/08/19 00:49:43;;;;;;;12.13;10.07;;;32.60;52.10;;;;;;4993832;28;20023;-77
2022/08/19 00:52:16;;;;;;;14.15;10.90;;;32.60;52.20;;;;;;4994430;28;20148;-77
2022/08/19 00:54:42;;;;;;;11.45;10.25;;;32.50;52.20;;;;;;4994700;28;20030;-76
2022/08/19 00:57:12;;;;;;;12.27;10.65;;;32.30;52.50;;;;;;4994941;28;20022;-77
2022/08/19 00:59:41;;;;;;;14.75;11.10;;;32.30;52.60;;;;;;4994127;28;20018;-76
2022/08/19 01:02:07;;;;;;;12.15;10.20;;;32.10;52.70;;;;;;4992966;28;20089;-77
2022/08/19 01:04:33;;;;;;;14.38;11.02;;;32.10;52.70;;;;;;4993660;28;20026;-78
2022/08/19 01:07:01;;;;;;;14.77;10.43;;;32.00;52.70;;;;;;4977251;28;20043;-78
2022/08/19 01:09:26;;;;;;;13.75;9.90;;;31.70;53.20;;;;;;4994137;28;20049;-76
2022/08/19 01:11:52;;;;;;;12.00;9.82;;;31.50;53.40;;;;;;4993238;28;20417;-76
2022/08/19 01:14:19;;;;;;;12.30;10.45;;;31.70;53.40;;;;;;4977204;28;20045;-77
2022/08/19 01:16:46;;;;;;;14.25;11.18;;;31.80;53.40;;;;;;4994220;28;20049;-77
2022/08/19 01:19:31;;;;;;;14.23;10.48;;;32.00;53.20;;;;;;4993438;28;20037;-76
2022/08/19 01:22:31;;;;;;;13.18;11.15;;;32.00;53.00;;;;;;4993582;28;20516;-78
2022/08/19 01:24:57;;;;;;;;;;;32.00;53.10;;;;;;4978865;28;20112;-78
2022/08/19 01:27:23;;;;;;;14.60;10.90;;;31.90;53.20;;;;;;4992802;28;20308;-76
2022/08/19 01:29:48;;;;;;;13.40;10.85;;;31.90;53.30;;;;;;4993897;28;20062;-76
2022/08/19 01:32:16;;;;;;;11.93;9.70;;;31.90;53.20;;;;;;4994184;28;20022;-76
2022/08/19 01:34:44;;;;;;;11.82;10.05;;;31.70;53.30;;;;;;4992754;28;20041;-75
2022/08/19 01:37:11;;;;;;;12.52;11.23;;;31.60;53.70;;;;;;4993892;28;20061;-76
2022/08/19 01:39:40;;;;;;;13.63;10.55;;;31.60;53.60;;;;;;4992863;28;20106;-76
2022/08/19 01:42:08;;;;;;;14.65;10.70;;;31.60;53.50;;;;;;4993573;28;20386;-77
2022/08/19 01:44:36;;;;;;;12.88;11.13;;;31.70;53.60;;;;;;4993892;28;20023;-76
2022/08/19 01:47:02;;;;;;;14.75;12.02;;;31.70;53.50;;;;;;4994768;28;20038;-77
2022/08/19 01:49:27;;;;;;;12.45;10.77;;;31.60;53.60;;;;;;4993584;28;20030;-77
2022/08/19 01:51:54;;;;;;;16.85;11.95;;;31.60;53.60;;;;;;4994605;28;20022;-76
2022/08/19 01:54:22;;;;;;;13.43;10.80;;;31.50;53.80;;;;;;4992606;28;20113;-76
2022/08/19 01:56:48;;;;;;;13.70;11.25;;;31.50;53.90;;;;;;4994291;28;20450;-77
2022/08/19 01:59:20;;;;;;;14.55;11.05;;;31.50;53.90;;;;;;4993399;28;20102;-76
2022/08/19 02:01:46;;;;;;;13.85;12.02;;;31.50;53.90;;;;;;4993022;28;20125;-77
2022/08/19 02:04:11;;;;;;;13.18;11.57;;;31.40;54.00;;;;;;4975780;28;20125;-76
2022/08/19 02:06:39;;;;;;;13.85;11.77;;;31.30;54.00;;;;;;4992743;28;20065;-75
2022/08/19 02:09:06;;;;;;;15.25;11.13;;;31.30;54.00;;;;;;4993024;28;20023;-76
2022/08/19 02:11:34;;;;;;;14.13;11.25;;;31.30;54.10;;;;;;4993895;28;20023;-77
2022/08/19 02:14:02;;;;;;;14.77;11.90;;;31.30;54.10;;;;;;4992196;28;20034;-76
2022/08/19 02:16:28;;;;;;;13.32;11.48;;;31.30;54.00;;;;;;4993461;28;20425;-75
2022/08/19 02:18:54;;;;;;;16.33;12.13;;;31.40;54.10;;;;;;4993140;28;20022;-77
2022/08/19 02:21:22;;;;;;;14.10;12.23;;;31.20;53.90;;;;;;4994172;28;20504;-77
2022/08/19 02:23:49;;;;;;;18.40;12.82;;;31.20;53.90;;;;;;4993007;28;20042;-78
2022/08/19 02:26:16;;;;;;;16.80;12.48;;;31.20;54.00;;;;;;4991616;28;20037;-77
2022/08/19 02:28:42;;;;;;;15.32;13.00;;;31.20;54.10;;;;;;4992949;28;20038;-78
2022/08/19 02:31:17;;;;;;;12.85;11.25;;;31.10;54.10;;;;;;4990573;28;20023;-76
2022/08/19 02:33:44;;;;;;;14.23;12.10;;;31.00;54.30;;;;;;4992736;28;20029;-77
2022/08/19 02:36:13;;;;;;;13.90;12.18;;;30.90;54.50;;;;;;4992968;28;20027;-76
2022/08/19 02:38:39;;;;;;;14.25;12.75;;;30.90;54.70;;;;;;4992142;28;20022;-76
2022/08/19 02:41:13;;;;;;;15.57;12.40;;;30.80;54.80;;;;;;4992096;28;20113;-76
2022/08/19 02:43:40;;;;;;;13.70;12.00;;;30.80;54.80;;;;;;4977889;28;20030;-76
2022/08/19 02:46:24;;;;;;;16.25;12.13;;;30.80;55.00;;;;;;4992753;28;20377;-77
2022/08/19 02:48:56;;;;;;;14.63;12.65;;;30.90;54.90;;;;;;4991510;28;20057;-77
2022/08/19 02:51:27;;;;;;;14.18;12.35;;;30.90;54.70;;;;;;4992568;28;20026;-75
2022/08/19 02:53:53;;;;;;;14.52;12.63;;;30.80;54.70;;;;;;4992399;28;20033;-76
2022/08/19 02:56:20;;;;;;;17.60;12.90;;;30.80;54.80;;;;;;4992701;28;20029;-77
2022/08/19 02:58:46;;;;;;;15.88;13.05;;;30.80;54.80;;;;;;4992298;28;20105;-75
2022/08/19 03:01:22;;;;;;;14.95;12.18;;;30.70;54.80;;;;;;4992095;28;20045;-76
2022/08/19 03:03:48;;;;;;;16.05;12.95;;;30.70;55.00;;;;;;4992308;28;20041;-76
2022/08/19 03:06:15;;;;;;;14.68;12.45;;;30.60;55.00;;;;;;4990879;28;20022;-77
2022/08/19 03:08:43;;;;;;;17.13;13.10;;;30.60;55.00;;;;;;4992482;28;20386;-77
2022/08/19 03:11:28;;;;;;;16.98;12.75;;;30.60;55.10;;;;;;4992131;28;20027;-77
2022/08/19 03:13:54;;;;;;;16.10;13.13;;;30.60;55.10;;;;;;4992167;28;20026;-76
2022/08/19 03:16:21;;;;;;;17.52;13.25;;;30.40;55.20;;;;;;4991214;28;20125;-77
2022/08/19 03:18:48;;;;;;;15.48;13.15;;;30.40;55.40;;;;;;4992394;28;20034;-76
2022/08/19 03:21:23;;;;;;;14.52;12.93;;;30.40;55.50;;;;;;4993220;28;20038;-76
2022/08/19 03:23:50;;;;;;;14.50;13.02;;;30.30;55.40;;;;;;4992309;28;20524;-77
2022/08/19 03:26:16;;;;;;;17.00;13.27;;;30.30;55.70;;;;;;4973665;28;20496;-76
2022/08/19 03:28:49;;;;;;;15.68;13.35;;;30.20;55.70;;;;;;4992077;28;20490;-77
2022/08/19 03:31:17;;;;;;;15.52;13.32;;;30.20;55.60;;;;;;4991323;28;20553;-76
2022/08/19 03:33:44;;;;;;;14.95;12.70;;;30.20;55.60;;;;;;4991071;28;20038;-75
2022/08/19 03:36:16;;;;;;;17.42;12.98;;;30.20;55.70;;;;;;4991325;28;20045;-76
2022/08/19 03:38:48;;;;;;;17.80;13.88;;;30.20;55.60;;;;;;4980680;28;20030;-75
2022/08/19 03:41:30;;;;;;;17.23;13.40;;;30.20;55.80;;;;;;5009075;28;20051;-76
2022/08/19 03:43:57;;;;;;;17.60;13.43;;;30.20;55.80;;;;;;5005469;28;20088;-76
2022/08/19 03:46:26;;;;;;;15.20;13.60;;;30.20;55.80;;;;;;4986012;28;20041;-76
2022/08/19 03:48:53;;;;;;;17.15;13.63;;;30.20;55.80;;;;;;4989127;28;20030;-76
2022/08/19 03:51:25;;;;;;;16.05;13.38;;;30.10;56.00;;;;;;4995877;28;20034;-76
2022/08/19 03:53:52;;;;;;;18.33;15.13;;;30.10;56.10;;;;;;4984157;28;20327;-75
2022/08/19 03:56:17;;;;;;;16.73;13.65;;;30.10;56.10;;;;;;4994319;28;20031;-75
2022/08/19 03:58:43;;;;;;;20.02;14.02;;;30.10;56.40;;;;;;4988910;28;20072;-75
2022/08/19 04:01:13;;;;;;;59.03;53.60;;;30.00;56.30;;;;;;4994354;28;20150;-75
2022/08/19 04:03:39;;;;;;;15.20;12.90;;;30.10;56.30;;;;;;4996438;28;20037;-77
2022/08/19 04:06:24;;;;;;;18.50;13.52;;;30.10;56.30;;;;;;4996720;28;20046;-76
2022/08/19 04:08:53;;;;;;;17.50;14.10;;;30.20;56.30;;;;;;4996506;28;20380;-75
2022/08/19 04:11:22;;;;;;;15.65;12.88;;;30.20;56.20;;;;;;4996481;28;20019;-76
2022/08/19 04:13:49;;;;;;;17.45;13.73;;;30.30;56.00;;;;;;4994402;28;20029;-76
2022/08/19 04:16:14;;;;;;;14.43;12.88;;;30.30;56.20;;;;;;4995718;28;20453;-75
2022/08/19 04:18:40;;;;;;;16.75;13.73;;;30.30;56.00;;;;;;4996271;28;20030;-77
2022/08/19 04:21:07;;;;;;;17.15;13.02;;;30.30;56.10;;;;;;4999560;28;20018;-74
2022/08/19 04:23:35;;;;;;;15.23;12.85;;;30.20;56.10;;;;;;4996259;28;20042;-76
2022/08/19 04:26:02;;;;;;;14.48;13.00;;;30.40;56.10;;;;;;4996224;28;20095;-76
2022/08/19 04:28:28;;;;;;;15.32;13.48;;;30.50;56.00;;;;;;4996205;28;20042;-76
2022/08/19 04:30:55;;;;;;;15.68;13.93;;;30.60;55.80;;;;;;5003365;28;20037;-76
2022/08/19 04:33:24;;;;;;;19.63;13.57;;;30.70;55.60;;;;;;4983766;28;20026;-75
2022/08/19 04:35:51;;;;;;;13.98;12.48;;;30.80;55.50;;;;;;4994044;28;20010;-75
2022/08/19 04:38:19;;;;;;;14.80;12.43;;;30.80;55.40;;;;;;4987093;28;20058;-75
2022/08/19 04:43:37;;;;;;;14.35;12.85;;;31.00;55.40;;;;;;4986793;28;20045;-75
2022/08/19 04:46:08;;;;;;;13.63;12.23;;;30.90;55.80;;;;;;4977536;28;20027;-77
2022/08/19 04:48:34;;;;;;;16.00;11.30;;;30.90;55.90;;;;;;4976138;28;20030;-76
2022/08/19 04:51:00;;;;;;;16.92;11.20;;;30.80;55.60;;;;;;4994932;28;20068;-75
2022/08/19 04:53:31;;;;;;;13.88;11.48;;;30.70;56.20;;;;;;4995893;28;20537;-76
2022/08/19 04:55:59;;;;;;;16.67;11.48;;;30.80;56.40;;;;;;4994600;28;20355;-76
2022/08/19 04:58:27;;;;;;;17.15;12.95;;;31.10;56.20;;;;;;4995322;28;20429;-75
2022/08/19 05:00:53;;;;;;;15.25;13.63;;;31.30;56.40;;;;;;4995268;28;20042;-74
2022/08/19 05:03:20;;;;;;;17.67;13.73;;;31.50;55.70;;;;;;4994731;28;20093;-75
2022/08/19 05:05:50;;;;;;;16.83;12.68;;;31.60;55.50;;;;;;4995462;28;20022;-76
2022/08/19 05:08:21;;;;;;;15.13;12.40;;;31.70;55.40;;;;;;4995555;28;20101;-75
2022/08/19 05:10:50;;;;;;;14.80;11.75;;;31.80;55.20;;;;;;4995338;28;20038;-75
2022/08/19 05:13:18;;;;;;;14.82;11.43;;;31.80;55.00;;;;;;4994628;28;20086;-76
2022/08/19 05:15:55;;;;;;;14.30;11.85;;;31.90;55.00;;;;;;4995150;28;20051;-75
2022/08/19 05:23:55;;;;;;;14.67;10.40;;;31.80;54.80;;;;;;4995191;28;20132;-75
2022/08/19 05:26:20;;;;;;;15.43;10.82;;;31.70;54.50;;;;;;4995026;28;20473;-76
2022/08/19 05:28:46;;;;;;;12.98;11.52;;;31.60;55.40;;;;;;4995016;28;20037;-78
2022/08/19 05:31:12;;;;;;;17.10;11.05;;;31.70;55.70;;;;;;4995230;28;20018;-78
2022/08/19 05:33:39;;;;;;;12.75;11.40;;;31.90;55.40;;;;;;4994704;28;20022;-79
2022/08/19 05:36:07;;;;;;;14.63;10.68;;;32.10;55.30;;;;;;4994661;28;20022;-79
2022/08/19 05:38:34;;;;;;;15.82;11.40;;;32.30;54.80;;;;;;4976685;28;20089;-78
2022/08/19 05:40:59;;;;;;;14.15;10.50;;;32.50;54.80;;;;;;4976702;28;20029;-78
2022/08/19 05:43:25;;;;;;;13.98;11.70;;;32.60;54.50;;;;;;4994665;28;20038;-78
2022/08/19 05:45:51;;;;;;;15.55;10.52;;;32.70;54.30;;;;;;4989262;28;20022;-78
2022/08/19 05:48:20;;;;;;;12.38;10.90;;;32.80;54.20;;;;;;4988066;28;20045;-77
2022/08/19 05:50:46;;;;;;;12.35;10.50;;;32.80;54.10;;;;;;4957784;28;20743;-78
2022/08/19 05:53:16;;;;;;;12.95;9.38;;;32.80;54.30;;;;;;4957804;28;20513;-78
2022/08/19 05:55:42;;;;;;;10.77;8.80;;;32.90;53.30;;;;;;4973332;28;20417;-78
2022/08/19 05:58:08;;;;;;;11.68;9.30;;;32.90;53.50;;;;;;4973673;28;20445;-79
2022/08/19 06:00:35;;;;;;;11.23;9.07;;;32.80;53.70;;;;;;4974207;28;20046;-81
2022/08/19 06:03:03;;;;;;;10.35;9.10;;;32.90;53.90;;;;;;4974958;28;20045;-79
2022/08/19 06:05:30;;;;;;;10.23;9.05;;;33.20;53.50;;;;;;4957528;28;20041;-78
2022/08/19 06:07:56;;;;;;;12.57;8.73;;;33.30;53.40;;;;;;4973071;28;20422;-77
2022/08/19 06:10:22;;;;;;;11.82;9.27;;;33.40;53.10;;;;;;4973618;28;20039;-79
2022/08/19 06:12:48;;;;;;;13.77;8.88;;;33.40;52.50;;;;;;4972227;28;20406;-79
2022/08/19 06:15:14;;;;;;;12.27;9.02;;;33.50;52.40;;;;;;4973660;28;20027;-77
2022/08/19 06:17:41;;;;;;;13.40;8.10;;;33.70;52.10;;;;;;4971094;28;20027;-77
2022/08/19 06:20:13;;;;;;;12.60;8.13;;;33.70;51.90;;;;;;4973202;28;20015;-77
2022/08/19 06:22:45;;;;;;;11.95;8.85;;;33.70;51.90;;;;;;4974423;28;20093;-77
2022/08/19 06:25:13;;;;;;;11.70;8.35;;;33.80;51.70;;;;;;4974334;28;20026;-78
2022/08/19 06:27:39;;;;;;;9.88;8.10;;;33.90;51.10;;;;;;4974479;28;20023;-77
2022/08/19 06:30:06;;;;;;;16.77;8.38;;;33.60;51.50;;;;;;4974642;28;20023;-78
2022/08/19 06:32:32;;;;;;;10.60;8.00;;;33.00;51.40;;;;;;4973681;28;20039;-77
2022/08/19 06:34:57;;;;;;;9.93;8.18;;;32.20;52.70;;;;;;4974436;28;20031;-78
2022/08/19 06:37:23;;;;;;;13.25;8.23;;;32.20;53.10;;;;;;4974468;28;20030;-77
2022/08/19 06:39:50;;;;;;;9.73;7.95;;;32.80;52.80;;;;;;4957008;28;20023;-78
2022/08/19 06:42:18;;;;;;;14.52;8.15;;;33.50;51.80;;;;;;4974009;28;20093;-78
2022/08/19 06:44:46;;;;;;;11.13;7.90;;;33.90;51.20;;;;;;4974420;28;20015;-78
2022/08/19 06:47:20;;;;;;;15.77;8.32;;;34.20;51.40;;;;;;4974037;28;20041;-78
2022/08/19 06:49:46;;;;;;;9.15;7.50;;;34.50;50.90;;;;;;4973817;28;20030;-79
2022/08/19 06:52:12;;;;;;;9.75;7.07;;;34.60;50.10;;;;;;4973284;28;20038;-78
2022/08/19 06:54:39;;;;;;;23.63;8.00;;;34.40;49.40;;;;;;4974044;28;20033;-78
2022/08/19 06:57:06;;;;;;;10.25;6.80;;;34.30;50.10;;;;;;4973209;28;20035;-78
2022/08/19 06:59:33;;;;;;;9.57;6.68;;;34.10;49.60;;;;;;4973710;28;20073;-78
2022/08/19 07:02:01;;;;;;;11.57;7.25;;;33.80;49.90;;;;;;4974060;28;20126;-79
2022/08/19 07:04:31;;;;;;;11.52;7.50;;;33.40;50.40;;;;;;4974393;28;20033;-80
2022/08/19 07:06:59;;;;;;;10.43;7.32;;;33.20;51.10;;;;;;4974215;28;20386;-79
2022/08/19 07:09:26;;;;;;;9.07;6.68;;;33.10;50.80;;;;;;4973770;28;20110;-79
2022/08/19 07:11:54;;;;;;;17.80;7.80;;;33.20;51.50;;;;;;4973800;28;20078;-81
2022/08/19 07:14:26;;;;;;;10.52;6.93;;;33.30;51.00;;;;;;4973849;28;20037;-80
2022/08/19 07:16:55;;;;;;;8.85;6.90;;;33.30;51.10;;;;;;4956515;28;20027;-79
2022/08/19 07:19:22;;;;;;;9.82;6.88;;;33.30;51.00;;;;;;4973206;28;20114;-79
2022/08/19 07:21:52;;;;;;;9.40;7.10;;;33.50;50.80;;;;;;4973813;28;20023;-77
2022/08/19 07:24:25;;;;;;;9.70;6.90;;;34.00;50.70;;;;;;4956766;28;20034;-79
2022/08/19 07:26:54;;;;;;;9.35;7.22;;;34.20;49.80;;;;;;4973870;28;20038;-79
2022/08/19 07:29:22;;;;;;;9.23;6.93;;;34.50;49.60;;;;;;4956350;28;20031;-78
2022/08/19 07:31:50;;;;;;;10.93;6.20;;;34.60;49.30;;;;;;4974280;28;20022;-79
2022/08/19 07:34:16;;;;;;;10.95;6.38;;;34.60;50.10;;;;;;4973753;28;20027;-79
2022/08/19 07:36:43;;;;;;;9.95;6.68;;;34.60;49.70;;;;;;4973807;28;20027;-79
2022/08/19 07:39:19;;;;;;;10.32;6.97;;;34.70;49.60;;;;;;4973723;28;20689;-79
2022/08/19 07:41:46;;;;;;;9.57;6.40;;;35.00;49.30;;;;;;4973743;28;20031;-79
2022/08/19 07:44:12;;;;;;;17.77;7.05;;;35.30;49.10;;;;;;4973626;28;20106;-78
2022/08/19 07:46:44;;;;;;;11.07;6.70;;;35.20;49.30;;;;;;4973291;28;20467;-79
2022/08/19 07:49:14;;;;;;;8.82;6.20;;;35.50;48.90;;;;;;4974054;28;20023;-79
2022/08/19 07:51:39;;;;;;;;;;;35.60;48.50;;;;;;4974057;28;20111;-80
2022/08/19 07:54:05;;;;;;;8.15;6.68;;;35.50;48.30;;;;;;4973783;28;20004;-77
2022/08/19 07:56:31;;;;;;;11.88;6.55;;;35.40;49.20;;;;;;4973726;28;20394;-80
2022/08/19 07:58:57;;;;;;;9.38;6.60;;;35.50;49.00;;;;;;4973646;28;20030;-80
2022/08/19 08:01:26;;;;;;;12.30;6.45;;;35.70;48.40;;;;;;4973402;28;20059;-78
2022/08/19 08:09:31;;;;;;;10.93;6.40;;;35.40;48.40;;;;;;4970273;28;20341;-80
2022/08/19 08:12:01;;;;;;;9.70;6.47;;;35.70;49.10;;;;;;4970581;28;20031;-80
2022/08/19 08:14:36;;;;;;;11.35;6.13;;;35.90;48.10;;;;;;4971014;28;20038;-79
2022/08/19 08:17:03;;;;;;;7.03;5.55;;;35.90;47.90;;;;;;4969951;28;20109;-80
2022/08/19 08:19:30;;;;;;;11.82;6.05;;;35.70;48.90;;;;;;4970425;28;20145;-76
2022/08/19 08:21:58;;;;;;;9.05;5.95;;;35.80;48.90;;;;;;4970440;28;20031;-79
2022/08/19 08:24:28;;;;;;;7.70;5.90;;;36.10;47.90;;;;;;4970521;28;20073;-79
2022/08/19 08:26:54;;;;;;;9.20;6.13;;;36.10;48.30;;;;;;4970280;28;20082;-80
2022/08/19 08:29:20;;;;;;;109.57;13.07;;;36.30;48.40;;;;;;4970147;28;20035;-77
2022/08/19 08:31:46;;;;;;;13.13;6.45;;;36.70;48.10;;;;;;4973945;28;20089;-77
2022/08/19 08:34:13;;;;;;;12.10;6.50;;;37.10;47.60;;;;;;4973248;28;20030;-78
2022/08/19 08:36:44;;;;;;;10.55;5.85;;;37.30;47.30;;;;;;4962191;28;20057;-75
2022/08/19 08:39:12;;;;;;;10.60;6.10;;;37.00;46.50;;;;;;4922730;28;20594;-77
2022/08/19 08:41:58;;;;;;;7.05;5.65;;;36.90;46.70;;;;;;4954983;28;20037;-81
2022/08/19 08:44:40;;;;;;;11.85;5.95;;;37.00;46.80;;;;;;4974095;28;20433;-78
2022/08/19 08:47:16;;;;;;;8.43;5.85;;;37.30;46.80;;;;;;4975829;28;20496;-75
2022/08/19 08:49:54;;;;;;;9.45;5.65;;;37.30;46.90;;;;;;4976467;28;20019;-77
2022/08/19 08:52:24;;;;;;;10.93;5.30;;;37.60;46.40;;;;;;4976728;28;20113;-78
2022/08/19 08:54:52;;;;;;;;;;;38.00;45.10;;;;;;4977136;28;20057;-86
2022/08/19 08:57:51;;;;;;;8.00;5.43;;;37.70;45.60;;;;;;4959815;28;19906;-78
2022/08/19 09:00:36;;;;;;;7.35;4.90;;;37.30;45.60;;;;;;4940041;29;20075;-81
2022/08/19 09:03:05;;;;;;;8.43;5.38;;;36.90;45.80;;;;;;4954015;29;20039;-83
2022/08/19 09:05:45;;;;;;;9.15;4.95;;;37.20;46.00;;;;;;4954205;29;20102;-77
2022/08/19 09:08:17;;;;;;;;;;;36.90;45.70;;;;;;4955091;29;20027;-87
2022/08/19 09:10:51;;;;;;;6.38;4.68;;;37.30;45.60;;;;;;4938680;29;19910;-81
2022/08/19 09:13:19;;;;;;;10.07;4.97;;;37.30;45.10;;;;;;4938855;29;20031;-79
2022/08/19 09:15:49;;;;;;;7.82;4.53;;;37.50;45.50;;;;;;4938198;29;20020;-80
2022/08/19 09:18:16;;;;;;;8.10;4.78;;;37.80;44.60;;;;;;4938050;29;20043;-78
2022/08/19 09:20:42;;;;;;;6.72;4.35;;;37.80;45.00;;;;;;4955233;29;20387;-80
2022/08/19 09:23:10;;;;;;;10.23;4.95;;;37.40;44.20;;;;;;4938537;29;20042;-81
2022/08/19 09:25:36;;;;;;;25.45;5.63;;;37.50;44.30;;;;;;4955007;29;20019;-81
2022/08/19 09:28:03;;;;;;;11.27;4.47;;;37.60;44.70;;;;;;4954243;28;20110;-81
2022/08/19 09:30:33;;;;;;;10.30;4.68;;;37.60;44.80;;;;;;4937394;29;20028;-79
2022/08/19 09:33:00;;;;;;;7.05;4.68;;;37.80;44.70;;;;;;4937599;29;20390;-80
2022/08/19 09:35:28;;;;;;;7.28;4.28;;;38.20;44.40;;;;;;4937504;29;20471;-80
2022/08/19 09:37:56;;;;;;;6.35;4.50;;;38.40;44.50;;;;;;4986468;28;20055;-81
2022/08/19 09:40:22;;;;;;;9.98;4.90;;;38.10;44.30;;;;;;4977506;28;20025;-81
2022/08/19 09:42:48;;;;;;;8.80;4.63;;;37.90;44.00;;;;;;4977321;28;20030;-80
2022/08/19 09:45:21;;;;;;;6.05;4.50;;;37.60;44.40;;;;;;4995334;28;20152;-80
2022/08/19 09:47:47;;;;;;;6.63;4.38;;;37.80;44.10;;;;;;4995470;28;20026;-78
2022/08/19 09:50:13;;;;;;;8.25;4.50;;;38.10;43.90;;;;;;4978160;28;20024;-78
2022/08/19 09:52:39;;;;;;;9.23;5.00;;;38.00;44.10;;;;;;4995411;28;20026;-82
2022/08/19 09:55:07;;;;;;;8.85;4.78;;;37.90;44.30;;;;;;4977596;28;20088;-76
2022/08/19 09:57:33;;;;;;;7.55;4.60;;;38.20;43.90;;;;;;4995363;28;20109;-77
2022/08/19 09:59:59;;;;;;;8.10;5.00;;;38.10;43.80;;;;;;4995052;28;20105;-81
2022/08/19 10:02:25;;;;;;;10.73;4.55;;;37.50;43.90;;;;;;4995691;28;20027;-77
2022/08/19 10:07:36;;;;;;;8.63;5.18;;;38.10;44.30;;;;;;4995281;28;20069;-80
2022/08/19 10:10:05;;;;;;;10.00;5.30;;;39.00;44.00;;;;;;4995302;28;20026;-83
2022/08/19 10:12:33;;;;;;;8.57;5.05;;;39.20;43.60;;;;;;4994981;28;20082;-85
2022/08/19 10:14:59;;;;;;;8.00;5.03;;;39.00;43.10;;;;;;4995290;28;20081;-82
2022/08/19 10:17:25;;;;;;;6.40;5.10;;;38.70;43.50;;;;;;4977803;28;20501;-82
2022/08/19 10:19:51;;;;;;;22.98;5.47;;;38.50;43.70;;;;;;4977672;28;20050;-84
2022/08/19 10:22:18;;;;;;;9.75;4.93;;;38.20;44.00;;;;;;4303807;28;10000715;-83
2022/08/19 10:24:43;;;;;;;11.15;4.82;;;38.30;43.70;;;;;;4974419;28;20153;-81
2022/08/19 10:27:09;;;;;;;10.05;4.78;;;38.40;44.20;;;;;;4974543;28;20112;-83
2022/08/19 10:29:35;;;;;;;6.43;4.90;;;38.60;44.10;;;;;;4992435;28;20041;-76
2022/08/19 10:32:05;;;;;;;9.48;4.93;;;38.60;43.80;;;;;;4992843;28;20049;-80
2022/08/19 10:34:31;;;;;;;7.85;5.45;;;38.70;43.90;;;;;;4992416;28;20034;-78
2022/08/19 10:36:59;;;;;;;9.20;5.25;;;38.70;43.50;;;;;;4992676;28;20432;-80
2022/08/19 10:39:25;;;;;;;7.45;5.47;;;38.90;43.50;;;;;;4992867;28;20113;-79
2022/08/19 10:41:50;;;;;;;9.32;5.25;;;39.10;43.20;;;;;;4992820;28;20105;-77
2022/08/19 10:44:17;;;;;;;10.63;4.72;;;39.10;43.20;;;;;;4974059;28;20082;-77
2022/08/19 10:46:46;;;;;;;7.68;5.20;;;39.00;43.60;;;;;;4974620;28;20117;-81
2022/08/19 10:49:13;;;;;;;8.43;5.70;;;38.90;43.80;;;;;;4974128;28;20034;-80
2022/08/19 10:56:50;;;;;;;9.07;4.90;;;40.10;43.30;;;;;;4991768;28;20060;-79
2022/08/19 10:57:10;;;;;;;7.90;4.68;;;40.40;42.90;;;;;;4991420;28;20104;-80
2022/08/19 10:59:35;;;;;;;14.20;5.82;;;40.80;42.40;;;;;;4990486;28;20030;-85
2022/08/19 11:02:04;;;;;;;7.05;4.93;;;41.00;42.60;;;;;;4969921;28;20733;-81
2022/08/19 11:04:31;;;;;;;7.30;5.10;;;41.10;43.40;;;;;;4972979;28;20030;-82
2022/08/19 11:06:57;;;;;;;7.63;5.00;;;41.00;42.30;;;;;;4972217;28;20030;-80
2022/08/19 11:09:25;;;;;;;6.00;4.75;;;40.40;42.70;;;;;;4971046;28;20057;-80
2022/08/19 11:11:52;;;;;;;7.55;4.85;;;40.40;42.60;;;;;;4970663;28;20037;-78
2022/08/19 11:14:20;;;;;;;8.32;5.20;;;40.10;42.70;;;;;;4969933;28;20027;-77
2022/08/19 11:16:50;;;;;;;7.47;4.85;;;39.70;42.60;;;;;;4971900;28;20046;-77
2022/08/19 11:19:18;;;;;;;8.25;4.90;;;39.40;42.80;;;;;;4972304;28;20039;-81
2022/08/19 11:21:46;;;;;;;9.05;4.80;;;38.90;43.20;;;;;;4970691;28;20034;-82
2022/08/19 11:24:24;;;;;;;10.15;5.28;;;39.20;43.70;;;;;;4952057;28;20042;-85
2022/08/19 11:26:53;;;;;;;6.88;4.78;;;39.70;43.20;;;;;;4953011;28;20094;-81
2022/08/19 11:29:20;;;;;;;8.48;4.80;;;39.60;43.80;;;;;;4952232;28;20032;-79
2022/08/19 11:31:49;;;;;;;7.55;5.07;;;40.00;43.40;;;;;;4953821;29;20078;-80
2022/08/19 11:34:18;;;;;;;6.63;4.63;;;40.20;43.10;;;;;;4953154;29;20027;-80
2022/08/19 11:36:47;;;;;;;6.65;4.78;;;40.20;42.60;;;;;;4954595;28;20023;-80
2022/08/19 11:39:15;;;;;;;8.10;5.07;;;40.30;43.00;;;;;;4953401;29;20067;-81
2022/08/19 11:41:41;;;;;;;6.53;4.70;;;40.40;43.20;;;;;;4954739;28;20038;-85
2022/08/19 11:44:07;;;;;;;7.72;4.70;;;40.30;42.50;;;;;;4952113;28;20036;-83
2022/08/19 11:46:34;;;;;;;7.38;4.60;;;40.60;42.50;;;;;;4953572;29;20023;-77
2022/08/19 11:49:01;;;;;;;11.13;5.10;;;40.50;42.20;;;;;;4954907;29;20094;-83
2022/08/19 11:51:27;;;;;;;9.07;4.95;;;40.70;42.70;;;;;;4953078;29;20411;-80
2022/08/19 11:53:55;;;;;;;7.25;4.78;;;40.80;42.30;;;;;;4952582;29;20038;-84
2022/08/19 11:56:22;;;;;;;7.40;4.80;;;41.00;42.80;;;;;;4954121;28;20082;-80
2022/08/19 11:58:48;;;;;;;7.97;4.68;;;41.10;42.80;;;;;;4952633;29;20059;-78
2022/08/19 12:01:16;;;;;;;9.70;4.88;;;41.30;42.10;;;;;;4955845;28;20152;-80
2022/08/19 12:03:43;;;;;;;6.78;4.88;;;41.10;42.50;;;;;;4955299;28;20490;-80
2022/08/19 12:06:15;;;;;;;14.18;4.93;;;41.20;42.40;;;;;;4977074;28;20031;-80
2022/08/19 12:08:42;;;;;;;9.93;4.95;;;41.20;42.40;;;;;;4960629;28;20085;-80
2022/08/19 12:11:08;;;;;;;10.45;4.50;;;41.00;42.00;;;;;;4977439;28;20023;-78
2022/08/19 12:13:35;;;;;;;8.23;4.68;;;40.90;42.70;;;;;;4977384;28;20038;-81
2022/08/19 12:16:12;;;;;;;10.18;4.60;;;40.80;43.00;;;;;;4960269;28;20034;-75
2022/08/19 12:18:41;;;;;;;9.45;4.90;;;40.50;42.50;;;;;;4960012;28;20031;-80
2022/08/19 12:21:07;;;;;;;6.85;4.65;;;40.20;42.70;;;;;;4976980;28;20026;-80
2022/08/19 12:23:32;;;;;;;9.43;4.40;;;40.40;43.40;;;;;;4960148;28;20038;-82
2022/08/19 12:25:58;;;;;;;11.63;5.13;;;40.10;42.60;;;;;;4960584;28;20398;-81
2022/08/19 12:28:25;;;;;;;8.95;4.78;;;40.00;42.40;;;;;;4977100;28;20045;-80
2022/08/19 12:30:51;;;;;;;16.27;5.60;;;40.50;42.60;;;;;;4977291;28;20035;-81
2022/08/19 12:33:18;;;;;;;9.73;4.80;;;40.80;42.20;;;;;;4959617;28;20030;-81
2022/08/19 12:35:46;;;;;;;7.97;4.70;;;40.80;42.10;;;;;;4977271;28;20019;-80
2022/08/19 12:38:13;;;;;;;9.13;4.60;;;40.60;42.20;;;;;;4977211;28;20117;-80
2022/08/19 12:40:42;;;;;;;8.05;4.78;;;40.40;42.60;;;;;;4959743;28;20470;-80
2022/08/19 12:43:08;;;;;;;9.88;4.53;;;40.50;43.00;;;;;;4977166;28;20550;-80
2022/08/19 12:45:34;;;;;;;6.47;4.88;;;40.60;42.30;;;;;;4976772;28;20027;-81
2022/08/19 12:48:00;;;;;;;9.98;4.55;;;40.40;42.30;;;;;;4976655;28;20034;-79
2022/08/19 12:50:26;;;;;;;7.65;4.45;;;40.60;42.10;;;;;;4976625;28;20087;-81
2022/08/19 12:52:52;;;;;;;9.32;4.88;;;40.70;41.90;;;;;;4977086;28;20102;-76
2022/08/19 12:55:18;;;;;;;9.77;4.72;;;40.20;42.10;;;;;;4959665;28;20033;-81
2022/08/19 12:57:44;;;;;;;8.85;4.85;;;39.90;42.30;;;;;;4976420;28;20031;-79
2022/08/19 13:00:14;;;;;;;10.05;4.97;;;39.90;42.30;;;;;;4959270;28;20498;-79
2022/08/19 13:02:44;;;;;;;7.57;5.18;;;40.00;42.40;;;;;;4976634;28;20052;-78